sensor_id;sensor_type;location;lat;lon;timestamp;P1;durP1;ratioP1;P2;durP2;ratioP2
80249;SDS011;69561;37.974;23.708;2023-08-01T00:00:44;1.77;;;1.50;;
80249;SDS011;69561;37.974;23.708;2023-08-01T00:03:10;3.97;;;1.70;;
80249;SDS011;69561;37.974;23.708;2023-08-01T00:05:35;2.83;;;1.30;;
80249;SDS011;69561;37.974;23.708;2023-08-01T00:08:02;3.15;;;1.70;;
80249;SDS011;69561;37.974;23.708;2023-08-01T00:10:28;2.00;;;1.58;;
80249;SDS011;69561;37.974;23.708;2023-08-01T00:12:54;5.35;;;1.60;;
80249;SDS011;69561;37.974;23.708;2023-08-01T00:15:19;2.05;;;1.60;;
80249;SDS011;69561;37.974;23.708;2023-08-01T00:17:45;2.05;;;1.60;;
80249;SDS011;69561;37.974;23.708;2023-08-01T00:20:11;5.90;;;1.50;;
80249;SDS011;69561;37.974;23.708;2023-08-01T00:22:36;1.85;;;1.50;;
80249;SDS011;69561;37.974;23.708;2023-08-01T00:25:02;5.60;;;1.40;;
80249;SDS011;69561;37.974;23.708;2023-08-01T00:27:28;1.77;;;1.30;;
80249;SDS011;69561;37.974;23.708;2023-08-01T00:29:54;4.53;;;1.42;;
80249;SDS011;69561;37.974;23.708;2023-08-01T00:32:20;4.20;;;1.85;;
80249;SDS011;69561;37.974;23.708;2023-08-01T00:34:46;1.95;;;1.50;;
80249;SDS011;69561;37.974;23.708;2023-08-01T00:37:14;3.00;;;1.40;;
80249;SDS011;69561;37.974;23.708;2023-08-01T00:39:40;1.50;;;1.40;;
80249;SDS011;69561;37.974;23.708;2023-08-01T00:42:06;2.15;;;1.65;;
80249;SDS011;69561;37.974;23.708;2023-08-01T00:44:31;11.10;;;2.15;;
80249;SDS011;69561;37.974;23.708;2023-08-01T00:46:57;4.82;;;1.60;;
80249;SDS011;69561;37.974;23.708;2023-08-01T00:49:23;2.20;;;1.65;;
80249;SDS011;69561;37.974;23.708;2023-08-01T00:51:49;2.15;;;1.55;;
80249;SDS011;69561;37.974;23.708;2023-08-01T00:54:15;2.25;;;1.35;;
80249;SDS011;69561;37.974;23.708;2023-08-01T00:56:41;3.33;;;1.40;;
80249;SDS011;69561;37.974;23.708;2023-08-01T00:59:07;2.50;;;1.35;;
80249;SDS011;69561;37.974;23.708;2023-08-01T01:01:33;5.18;;;1.58;;
80249;SDS011;69561;37.974;23.708;2023-08-01T01:03:58;1.67;;;1.20;;
80249;SDS011;69561;37.974;23.708;2023-08-01T01:06:25;2.42;;;1.48;;
80249;SDS011;69561;37.974;23.708;2023-08-01T01:08:52;2.22;;;1.33;;
80249;SDS011;69561;37.974;23.708;2023-08-01T01:11:19;2.95;;;1.33;;
80249;SDS011;69561;37.974;23.708;2023-08-01T01:13:45;5.10;;;1.60;;
80249;SDS011;69561;37.974;23.708;2023-08-01T01:16:10;2.67;;;1.50;;
80249;SDS011;69561;37.974;23.708;2023-08-01T01:18:36;4.43;;;1.40;;
80249;SDS011;69561;37.974;23.708;2023-08-01T01:21:02;3.08;;;1.42;;
80249;SDS011;69561;37.974;23.708;2023-08-01T01:23:27;7.10;;;1.80;;
80249;SDS011;69561;37.974;23.708;2023-08-01T01:25:54;3.38;;;1.27;;
80249;SDS011;69561;37.974;23.708;2023-08-01T01:28:22;3.53;;;1.48;;
80249;SDS011;69561;37.974;23.708;2023-08-01T01:30:49;2.78;;;1.48;;
80249;SDS011;69561;37.974;23.708;2023-08-01T01:33:16;2.17;;;1.30;;
80249;SDS011;69561;37.974;23.708;2023-08-01T01:35:42;6.35;;;1.38;;
80249;SDS011;69561;37.974;23.708;2023-08-01T01:38:08;4.03;;;1.50;;
80249;SDS011;69561;37.974;23.708;2023-08-01T01:40:34;6.28;;;1.50;;
80249;SDS011;69561;37.974;23.708;2023-08-01T01:43:00;5.47;;;1.48;;
80249;SDS011;69561;37.974;23.708;2023-08-01T01:45:26;1.90;;;1.48;;
80249;SDS011;69561;37.974;23.708;2023-08-01T01:47:52;2.25;;;1.20;;
80249;SDS011;69561;37.974;23.708;2023-08-01T01:50:17;2.83;;;1.33;;
80249;SDS011;69561;37.974;23.708;2023-08-01T01:52:46;4.75;;;1.50;;
80249;SDS011;69561;37.974;23.708;2023-08-01T01:55:12;2.38;;;1.50;;
80249;SDS011;69561;37.974;23.708;2023-08-01T01:57:37;3.30;;;1.35;;
80249;SDS011;69561;37.974;23.708;2023-08-01T02:00:04;3.55;;;1.40;;
80249;SDS011;69561;37.974;23.708;2023-08-01T02:02:30;7.65;;;1.60;;
80249;SDS011;69561;37.974;23.708;2023-08-01T02:04:55;7.22;;;1.27;;
80249;SDS011;69561;37.974;23.708;2023-08-01T02:07:21;2.10;;;1.30;;
80249;SDS011;69561;37.974;23.708;2023-08-01T02:09:47;4.00;;;1.80;;
80249;SDS011;69561;37.974;23.708;2023-08-01T02:12:12;2.10;;;1.50;;
80249;SDS011;69561;37.974;23.708;2023-08-01T02:14:41;4.05;;;1.50;;
80249;SDS011;69561;37.974;23.708;2023-08-01T02:17:06;4.70;;;1.50;;
80249;SDS011;69561;37.974;23.708;2023-08-01T02:19:32;3.78;;;1.33;;
80249;SDS011;69561;37.974;23.708;2023-08-01T02:21:58;2.92;;;1.38;;
80249;SDS011;69561;37.974;23.708;2023-08-01T02:24:24;4.05;;;1.50;;
80249;SDS011;69561;37.974;23.708;2023-08-01T02:26:50;4.53;;;1.70;;
80249;SDS011;69561;37.974;23.708;2023-08-01T02:29:16;7.05;;;1.52;;
80249;SDS011;69561;37.974;23.708;2023-08-01T02:31:42;4.65;;;1.75;;
80249;SDS011;69561;37.974;23.708;2023-08-01T02:34:07;4.05;;;1.60;;
80249;SDS011;69561;37.974;23.708;2023-08-01T02:36:33;6.32;;;1.65;;
80249;SDS011;69561;37.974;23.708;2023-08-01T02:38:59;3.50;;;1.50;;
80249;SDS011;69561;37.974;23.708;2023-08-01T02:41:24;5.13;;;1.58;;
80249;SDS011;69561;37.974;23.708;2023-08-01T02:43:50;5.35;;;1.42;;
80249;SDS011;69561;37.974;23.708;2023-08-01T02:46:16;4.53;;;1.58;;
80249;SDS011;69561;37.974;23.708;2023-08-01T02:48:42;3.45;;;1.60;;
80249;SDS011;69561;37.974;23.708;2023-08-01T02:51:07;3.28;;;1.65;;
80249;SDS011;69561;37.974;23.708;2023-08-01T02:53:36;6.78;;;1.80;;
80249;SDS011;69561;37.974;23.708;2023-08-01T02:56:05;5.00;;;1.50;;
80249;SDS011;69561;37.974;23.708;2023-08-01T02:58:32;5.45;;;1.63;;
80249;SDS011;69561;37.974;23.708;2023-08-01T03:00:58;2.15;;;1.50;;
80249;SDS011;69561;37.974;23.708;2023-08-01T03:03:23;6.25;;;1.63;;
80249;SDS011;69561;37.974;23.708;2023-08-01T03:05:49;8.10;;;1.58;;
80249;SDS011;69561;37.974;23.708;2023-08-01T03:08:15;2.75;;;1.48;;
80249;SDS011;69561;37.974;23.708;2023-08-01T03:10:41;3.35;;;1.55;;
80249;SDS011;69561;37.974;23.708;2023-08-01T03:13:06;5.82;;;1.60;;
80249;SDS011;69561;37.974;23.708;2023-08-01T03:15:32;6.15;;;1.55;;
80249;SDS011;69561;37.974;23.708;2023-08-01T03:17:58;4.40;;;1.50;;
80249;SDS011;69561;37.974;23.708;2023-08-01T03:20:23;2.75;;;1.40;;
80249;SDS011;69561;37.974;23.708;2023-08-01T03:22:49;4.30;;;1.88;;
80249;SDS011;69561;37.974;23.708;2023-08-01T03:25:15;3.05;;;1.52;;
80249;SDS011;69561;37.974;23.708;2023-08-01T03:27:41;6.53;;;1.80;;
80249;SDS011;69561;37.974;23.708;2023-08-01T03:30:06;2.95;;;1.50;;
80249;SDS011;69561;37.974;23.708;2023-08-01T03:32:34;2.03;;;1.70;;
80249;SDS011;69561;37.974;23.708;2023-08-01T03:35:00;4.75;;;1.65;;
80249;SDS011;69561;37.974;23.708;2023-08-01T03:37:26;5.13;;;1.70;;
80249;SDS011;69561;37.974;23.708;2023-08-01T03:39:51;3.72;;;1.58;;
80249;SDS011;69561;37.974;23.708;2023-08-01T03:42:17;5.45;;;1.80;;
80249;SDS011;69561;37.974;23.708;2023-08-01T03:44:43;2.00;;;1.45;;
80249;SDS011;69561;37.974;23.708;2023-08-01T03:47:08;5.15;;;2.15;;
80249;SDS011;69561;37.974;23.708;2023-08-01T03:49:34;3.30;;;1.77;;
80249;SDS011;69561;37.974;23.708;2023-08-01T03:52:00;5.30;;;1.77;;
80249;SDS011;69561;37.974;23.708;2023-08-01T03:54:26;6.47;;;1.80;;
80249;SDS011;69561;37.974;23.708;2023-08-01T03:56:52;4.20;;;1.80;;
80249;SDS011;69561;37.974;23.708;2023-08-01T03:59:17;9.07;;;2.00;;
80249;SDS011;69561;37.974;23.708;2023-08-01T04:01:43;3.85;;;1.85;;
80249;SDS011;69561;37.974;23.708;2023-08-01T04:04:09;5.50;;;2.05;;
80249;SDS011;69561;37.974;23.708;2023-08-01T04:06:35;10.02;;;2.20;;
80249;SDS011;69561;37.974;23.708;2023-08-01T04:09:01;3.58;;;1.73;;
80249;SDS011;69561;37.974;23.708;2023-08-01T04:11:27;7.05;;;2.00;;
80249;SDS011;69561;37.974;23.708;2023-08-01T04:13:54;8.80;;;2.08;;
80249;SDS011;69561;37.974;23.708;2023-08-01T04:16:21;4.65;;;1.75;;
80249;SDS011;69561;37.974;23.708;2023-08-01T04:18:47;5.88;;;1.75;;
80249;SDS011;69561;37.974;23.708;2023-08-01T04:21:15;3.97;;;2.05;;
80249;SDS011;69561;37.974;23.708;2023-08-01T04:23:41;5.10;;;2.15;;
80249;SDS011;69561;37.974;23.708;2023-08-01T04:26:07;5.07;;;2.10;;
80249;SDS011;69561;37.974;23.708;2023-08-01T04:28:33;5.15;;;1.77;;
80249;SDS011;69561;37.974;23.708;2023-08-01T04:30:59;6.78;;;1.98;;
80249;SDS011;69561;37.974;23.708;2023-08-01T04:33:25;2.75;;;1.92;;
80249;SDS011;69561;37.974;23.708;2023-08-01T04:35:51;4.55;;;1.92;;
80249;SDS011;69561;37.974;23.708;2023-08-01T04:38:17;5.82;;;1.95;;
80249;SDS011;69561;37.974;23.708;2023-08-01T04:40:43;4.07;;;1.88;;
80249;SDS011;69561;37.974;23.708;2023-08-01T04:43:09;5.00;;;1.75;;
80249;SDS011;69561;37.974;23.708;2023-08-01T04:45:35;4.60;;;1.90;;
80249;SDS011;69561;37.974;23.708;2023-08-01T04:48:01;3.55;;;1.63;;
80249;SDS011;69561;37.974;23.708;2023-08-01T04:50:26;2.45;;;1.63;;
80249;SDS011;69561;37.974;23.708;2023-08-01T04:52:52;2.60;;;1.67;;
80249;SDS011;69561;37.974;23.708;2023-08-01T04:55:18;8.90;;;2.08;;
80249;SDS011;69561;37.974;23.708;2023-08-01T04:57:44;3.58;;;1.80;;
80249;SDS011;69561;37.974;23.708;2023-08-01T05:00:10;3.42;;;1.77;;
80249;SDS011;69561;37.974;23.708;2023-08-01T05:02:36;3.33;;;1.60;;
80249;SDS011;69561;37.974;23.708;2023-08-01T05:05:02;3.55;;;1.77;;
80249;SDS011;69561;37.974;23.708;2023-08-01T05:07:28;10.68;;;1.95;;
80249;SDS011;69561;37.974;23.708;2023-08-01T05:09:54;7.65;;;1.92;;
80249;SDS011;69561;37.974;23.708;2023-08-01T05:12:20;7.32;;;1.85;;
80249;SDS011;69561;37.974;23.708;2023-08-01T05:14:46;2.88;;;1.67;;
80249;SDS011;69561;37.974;23.708;2023-08-01T05:17:12;5.88;;;1.77;;
80249;SDS011;69561;37.974;23.708;2023-08-01T05:19:37;6.00;;;1.60;;
80249;SDS011;69561;37.974;23.708;2023-08-01T05:22:03;5.18;;;1.88;;
80249;SDS011;69561;37.974;23.708;2023-08-01T05:24:29;5.95;;;1.80;;
80249;SDS011;69561;37.974;23.708;2023-08-01T05:26:55;8.18;;;1.77;;
80249;SDS011;69561;37.974;23.708;2023-08-01T05:29:21;8.20;;;1.90;;
80249;SDS011;69561;37.974;23.708;2023-08-01T05:31:46;3.60;;;1.63;;
80249;SDS011;69561;37.974;23.708;2023-08-01T05:34:12;3.00;;;1.73;;
80249;SDS011;69561;37.974;23.708;2023-08-01T06:06:40;7.35;;;2.00;;
80249;SDS011;69561;37.974;23.708;2023-08-01T06:09:06;3.08;;;1.80;;
80249;SDS011;69561;37.974;23.708;2023-08-01T06:11:32;3.47;;;2.30;;
80249;SDS011;69561;37.974;23.708;2023-08-01T06:13:58;6.78;;;2.30;;
80249;SDS011;69561;37.974;23.708;2023-08-01T06:16:24;2.80;;;2.15;;
80249;SDS011;69561;37.974;23.708;2023-08-01T06:18:51;3.28;;;2.40;;
80249;SDS011;69561;37.974;23.708;2023-08-01T06:21:17;3.60;;;2.00;;
80249;SDS011;69561;37.974;23.708;2023-08-01T06:23:44;5.20;;;2.42;;
80249;SDS011;69561;37.974;23.708;2023-08-01T06:26:09;6.50;;;2.35;;
80249;SDS011;69561;37.974;23.708;2023-08-01T06:28:35;2.80;;;2.05;;
80249;SDS011;69561;37.974;23.708;2023-08-01T06:31:01;4.55;;;2.20;;
80249;SDS011;69561;37.974;23.708;2023-08-01T06:33:28;6.85;;;2.38;;
80249;SDS011;69561;37.974;23.708;2023-08-01T06:38:43;4.95;;;2.25;;
80249;SDS011;69561;37.974;23.708;2023-08-01T06:41:08;7.50;;;2.42;;
80249;SDS011;69561;37.974;23.708;2023-08-01T06:43:34;4.25;;;2.58;;
80249;SDS011;69561;37.974;23.708;2023-08-01T06:46:03;2.55;;;2.10;;
80249;SDS011;69561;37.974;23.708;2023-08-01T06:48:32;4.75;;;2.40;;
80249;SDS011;69561;37.974;23.708;2023-08-01T06:51:01;9.00;;;2.83;;
80249;SDS011;69561;37.974;23.708;2023-08-01T06:53:28;4.97;;;2.40;;
80249;SDS011;69561;37.974;23.708;2023-08-01T06:55:54;6.68;;;2.35;;
80249;SDS011;69561;37.974;23.708;2023-08-01T06:58:20;6.18;;;2.78;;
80249;SDS011;69561;37.974;23.708;2023-08-01T07:00:45;6.70;;;2.75;;
80249;SDS011;69561;37.974;23.708;2023-08-01T07:03:11;9.25;;;2.70;;
80249;SDS011;69561;37.974;23.708;2023-08-01T07:05:37;5.47;;;2.60;;
80249;SDS011;69561;37.974;23.708;2023-08-01T07:08:03;3.30;;;2.20;;
80249;SDS011;69561;37.974;23.708;2023-08-01T07:10:29;5.13;;;2.35;;
80249;SDS011;69561;37.974;23.708;2023-08-01T07:12:55;8.07;;;2.70;;
80249;SDS011;69561;37.974;23.708;2023-08-01T07:15:21;5.78;;;2.50;;
80249;SDS011;69561;37.974;23.708;2023-08-01T07:17:47;4.30;;;2.42;;
80249;SDS011;69561;37.974;23.708;2023-08-01T07:20:12;3.58;;;2.38;;
80249;SDS011;69561;37.974;23.708;2023-08-01T07:22:38;4.93;;;2.63;;
80249;SDS011;69561;37.974;23.708;2023-08-01T07:25:04;2.85;;;2.38;;
80249;SDS011;69561;37.974;23.708;2023-08-01T07:27:30;7.90;;;3.05;;
80249;SDS011;69561;37.974;23.708;2023-08-01T07:29:56;7.80;;;2.80;;
80249;SDS011;69561;37.974;23.708;2023-08-01T07:32:21;4.63;;;2.55;;
80249;SDS011;69561;37.974;23.708;2023-08-01T07:34:47;7.82;;;2.50;;
80249;SDS011;69561;37.974;23.708;2023-08-01T07:37:13;3.78;;;2.88;;
80249;SDS011;69561;37.974;23.708;2023-08-01T07:39:38;5.60;;;2.90;;
80249;SDS011;69561;37.974;23.708;2023-08-01T07:42:04;6.75;;;2.78;;
80249;SDS011;69561;37.974;23.708;2023-08-01T07:44:30;7.00;;;2.97;;
80249;SDS011;69561;37.974;23.708;2023-08-01T07:46:56;6.57;;;2.63;;
80249;SDS011;69561;37.974;23.708;2023-08-01T07:49:22;5.88;;;2.60;;
80249;SDS011;69561;37.974;23.708;2023-08-01T07:51:48;4.55;;;2.90;;
80249;SDS011;69561;37.974;23.708;2023-08-01T07:54:17;3.72;;;2.72;;
80249;SDS011;69561;37.974;23.708;2023-08-01T08:02:44;6.65;;;3.00;;
80249;SDS011;69561;37.974;23.708;2023-08-01T08:05:11;4.70;;;2.83;;
80249;SDS011;69561;37.974;23.708;2023-08-01T08:07:37;5.95;;;3.28;;
80249;SDS011;69561;37.974;23.708;2023-08-01T08:10:06;5.60;;;3.13;;
80249;SDS011;69561;37.974;23.708;2023-08-01T08:12:32;9.90;;;3.03;;
80249;SDS011;69561;37.974;23.708;2023-08-01T08:14:58;9.38;;;3.35;;
80249;SDS011;69561;37.974;23.708;2023-08-01T08:17:24;6.13;;;2.97;;
80249;SDS011;69561;37.974;23.708;2023-08-01T08:19:50;6.72;;;3.03;;
80249;SDS011;69561;37.974;23.708;2023-08-01T08:22:17;6.13;;;3.33;;
80249;SDS011;69561;37.974;23.708;2023-08-01T08:24:43;3.72;;;3.15;;
80249;SDS011;69561;37.974;23.708;2023-08-01T08:27:12;3.78;;;3.20;;
80249;SDS011;69561;37.974;23.708;2023-08-01T08:29:40;4.55;;;3.13;;
80249;SDS011;69561;37.974;23.708;2023-08-01T08:32:06;5.25;;;3.10;;
80249;SDS011;69561;37.974;23.708;2023-08-01T08:34:32;5.63;;;3.63;;
80249;SDS011;69561;37.974;23.708;2023-08-01T08:36:58;4.05;;;3.15;;
80249;SDS011;69561;37.974;23.708;2023-08-01T08:39:24;5.70;;;2.80;;
80249;SDS011;69561;37.974;23.708;2023-08-01T08:41:53;5.93;;;3.13;;
80249;SDS011;69561;37.974;23.708;2023-08-01T08:44:45;4.13;;;3.55;;
80249;SDS011;69561;37.974;23.708;2023-08-01T08:47:15;5.45;;;3.03;;
80249;SDS011;69561;37.974;23.708;2023-08-01T08:49:44;4.70;;;2.90;;
80249;SDS011;69561;37.974;23.708;2023-08-01T08:52:11;4.53;;;3.20;;
80249;SDS011;69561;37.974;23.708;2023-08-01T08:54:37;9.23;;;3.40;;
80249;SDS011;69561;37.974;23.708;2023-08-01T08:57:06;6.85;;;3.17;;
80249;SDS011;69561;37.974;23.708;2023-08-01T08:59:33;6.18;;;3.40;;
80249;SDS011;69561;37.974;23.708;2023-08-01T09:02:00;4.88;;;3.55;;
80249;SDS011;69561;37.974;23.708;2023-08-01T09:04:28;3.40;;;3.20;;
80249;SDS011;69561;37.974;23.708;2023-08-01T09:06:55;5.68;;;3.53;;
80249;SDS011;69561;37.974;23.708;2023-08-01T09:09:26;3.35;;;3.00;;
80249;SDS011;69561;37.974;23.708;2023-08-01T09:11:53;4.85;;;3.20;;
80249;SDS011;69561;37.974;23.708;2023-08-01T09:14:21;6.93;;;3.40;;
80249;SDS011;69561;37.974;23.708;2023-08-01T09:16:47;7.32;;;3.05;;
80249;SDS011;69561;37.974;23.708;2023-08-01T09:19:19;6.43;;;3.53;;
80249;SDS011;69561;37.974;23.708;2023-08-01T09:21:48;4.63;;;3.08;;
80249;SDS011;69561;37.974;23.708;2023-08-01T09:24:16;7.47;;;3.70;;
80249;SDS011;69561;37.974;23.708;2023-08-01T09:26:43;10.05;;;3.85;;
80249;SDS011;69561;37.974;23.708;2023-08-01T09:29:10;5.10;;;3.15;;
80249;SDS011;69561;37.974;23.708;2023-08-01T09:31:37;3.40;;;3.10;;
80249;SDS011;69561;37.974;23.708;2023-08-01T09:34:17;9.48;;;3.90;;
80249;SDS011;69561;37.974;23.708;2023-08-01T09:36:45;4.57;;;3.35;;
80249;SDS011;69561;37.974;23.708;2023-08-01T09:39:15;5.60;;;3.50;;
80249;SDS011;69561;37.974;23.708;2023-08-01T09:41:42;4.10;;;3.63;;
80249;SDS011;69561;37.974;23.708;2023-08-01T09:44:12;4.32;;;3.50;;
80249;SDS011;69561;37.974;23.708;2023-08-01T09:46:40;4.78;;;3.63;;
80249;SDS011;69561;37.974;23.708;2023-08-01T09:49:17;6.78;;;3.72;;
80249;SDS011;69561;37.974;23.708;2023-08-01T09:51:54;8.77;;;3.53;;
80249;SDS011;69561;37.974;23.708;2023-08-01T09:54:29;8.25;;;3.85;;
80249;SDS011;69561;37.974;23.708;2023-08-01T09:57:22;9.20;;;3.42;;
80249;SDS011;69561;37.974;23.708;2023-08-01T09:59:52;8.32;;;4.03;;
80249;SDS011;69561;37.974;23.708;2023-08-01T10:02:25;5.60;;;3.45;;
80249;SDS011;69561;37.974;23.708;2023-08-01T10:04:53;4.05;;;3.42;;
80249;SDS011;69561;37.974;23.708;2023-08-01T10:07:25;7.57;;;3.50;;
80249;SDS011;69561;37.974;23.708;2023-08-01T10:09:57;6.60;;;3.50;;
80249;SDS011;69561;37.974;23.708;2023-08-01T10:12:25;5.18;;;3.15;;
80249;SDS011;69561;37.974;23.708;2023-08-01T10:15:02;3.65;;;3.17;;
80249;SDS011;69561;37.974;23.708;2023-08-01T10:17:41;3.67;;;3.33;;
80249;SDS011;69561;37.974;23.708;2023-08-01T10:20:07;3.20;;;3.00;;
80249;SDS011;69561;37.974;23.708;2023-08-01T10:22:33;5.60;;;3.17;;
80249;SDS011;69561;37.974;23.708;2023-08-01T10:25:00;8.60;;;2.80;;
80249;SDS011;69561;37.974;23.708;2023-08-01T10:27:28;3.00;;;2.60;;
80249;SDS011;69561;37.974;23.708;2023-08-01T10:30:01;4.75;;;2.45;;
80249;SDS011;69561;37.974;23.708;2023-08-01T10:32:33;3.28;;;2.47;;
80249;SDS011;69561;37.974;23.708;2023-08-01T10:35:00;2.60;;;2.42;;
80249;SDS011;69561;37.974;23.708;2023-08-01T10:37:41;3.55;;;2.80;;
80249;SDS011;69561;37.974;23.708;2023-08-01T10:40:12;3.67;;;2.53;;
80249;SDS011;69561;37.974;23.708;2023-08-01T10:42:39;5.35;;;2.58;;
80249;SDS011;69561;37.974;23.708;2023-08-01T10:45:06;2.70;;;2.50;;
80249;SDS011;69561;37.974;23.708;2023-08-01T10:47:49;2.70;;;2.50;;
80249;SDS011;69561;37.974;23.708;2023-08-01T10:50:17;6.78;;;2.67;;
80249;SDS011;69561;37.974;23.708;2023-08-01T10:52:44;3.25;;;2.78;;
80249;SDS011;69561;37.974;23.708;2023-08-01T10:55:11;3.28;;;2.53;;
80249;SDS011;69561;37.974;23.708;2023-08-01T10:57:47;3.92;;;2.80;;
80249;SDS011;69561;37.974;23.708;2023-08-01T11:00:17;2.85;;;2.33;;
80249;SDS011;69561;37.974;23.708;2023-08-01T11:02:51;2.75;;;2.30;;
80249;SDS011;69561;37.974;23.708;2023-08-01T11:05:17;2.60;;;2.40;;
80249;SDS011;69561;37.974;23.708;2023-08-01T11:07:52;5.07;;;2.60;;
80249;SDS011;69561;37.974;23.708;2023-08-01T11:10:24;2.35;;;2.15;;
80249;SDS011;69561;37.974;23.708;2023-08-01T11:12:54;3.90;;;2.50;;
80249;SDS011;69561;37.974;23.708;2023-08-01T11:15:20;2.67;;;2.47;;
80249;SDS011;69561;37.974;23.708;2023-08-01T11:17:50;5.50;;;2.38;;
80249;SDS011;69561;37.974;23.708;2023-08-01T11:20:17;2.72;;;2.53;;
80249;SDS011;69561;37.974;23.708;2023-08-01T11:22:59;2.80;;;2.60;;
80249;SDS011;69561;37.974;23.708;2023-08-01T11:25:33;2.83;;;2.53;;
80249;SDS011;69561;37.974;23.708;2023-08-01T11:28:07;4.93;;;2.60;;
80249;SDS011;69561;37.974;23.708;2023-08-01T11:30:37;3.67;;;2.30;;
80249;SDS011;69561;37.974;23.708;2023-08-01T11:36:00;2.17;;;2.00;;
80249;SDS011;69561;37.974;23.708;2023-08-01T11:38:26;2.35;;;2.15;;
80249;SDS011;69561;37.974;23.708;2023-08-01T11:40:58;2.50;;;2.30;;
80249;SDS011;69561;37.974;23.708;2023-08-01T11:43:24;2.35;;;1.85;;
80249;SDS011;69561;37.974;23.708;2023-08-01T11:45:54;2.17;;;1.98;;
80249;SDS011;69561;37.974;23.708;2023-08-01T11:48:21;2.45;;;2.35;;
80249;SDS011;69561;37.974;23.708;2023-08-01T11:50:48;2.47;;;2.00;;
80249;SDS011;69561;37.974;23.708;2023-08-01T11:53:20;2.00;;;1.90;;
80249;SDS011;69561;37.974;23.708;2023-08-01T11:55:47;2.00;;;1.80;;
80249;SDS011;69561;37.974;23.708;2023-08-01T11:58:29;2.03;;;1.67;;
80249;SDS011;69561;37.974;23.708;2023-08-01T12:01:08;2.17;;;1.85;;
80249;SDS011;69561;37.974;23.708;2023-08-01T12:06:31;1.80;;;1.70;;
80249;SDS011;69561;37.974;23.708;2023-08-01T12:09:05;2.10;;;1.88;;
80249;SDS011;69561;37.974;23.708;2023-08-01T12:11:41;1.95;;;1.83;;
80249;SDS011;69561;37.974;23.708;2023-08-01T12:14:08;2.42;;;2.22;;
80249;SDS011;69561;37.974;23.708;2023-08-01T12:16:36;2.25;;;2.05;;
80249;SDS011;69561;37.974;23.708;2023-08-01T12:19:05;4.00;;;2.20;;
80249;SDS011;69561;37.974;23.708;2023-08-01T12:21:33;2.20;;;2.00;;
80249;SDS011;69561;37.974;23.708;2023-08-01T12:24:00;2.30;;;2.10;;
80249;SDS011;69561;37.974;23.708;2023-08-01T12:26:26;2.42;;;2.05;;
80249;SDS011;69561;37.974;23.708;2023-08-01T12:28:52;2.25;;;1.95;;
80249;SDS011;69561;37.974;23.708;2023-08-01T12:31:18;2.67;;;1.90;;
80249;SDS011;69561;37.974;23.708;2023-08-01T12:33:45;2.10;;;1.98;;
80249;SDS011;69561;37.974;23.708;2023-08-01T12:36:12;2.35;;;2.13;;
80249;SDS011;69561;37.974;23.708;2023-08-01T12:38:38;2.45;;;1.58;;
80249;SDS011;69561;37.974;23.708;2023-08-01T12:41:05;1.80;;;1.70;;
80249;SDS011;69561;37.974;23.708;2023-08-01T12:43:32;2.60;;;1.92;;
80249;SDS011;69561;37.974;23.708;2023-08-01T12:45:58;1.70;;;1.50;;
80249;SDS011;69561;37.974;23.708;2023-08-01T12:48:24;1.95;;;1.73;;
80249;SDS011;69561;37.974;23.708;2023-08-01T12:50:50;1.63;;;1.45;;
80249;SDS011;69561;37.974;23.708;2023-08-01T12:53:16;1.80;;;1.70;;
80249;SDS011;69561;37.974;23.708;2023-08-01T12:55:43;1.90;;;1.80;;
80249;SDS011;69561;37.974;23.708;2023-08-01T12:58:12;2.08;;;1.83;;
80249;SDS011;69561;37.974;23.708;2023-08-01T13:00:39;2.13;;;1.80;;
80249;SDS011;69561;37.974;23.708;2023-08-01T13:03:06;1.92;;;1.77;;
80249;SDS011;69561;37.974;23.708;2023-08-01T13:05:36;1.60;;;1.50;;
80249;SDS011;69561;37.974;23.708;2023-08-01T13:08:04;1.70;;;1.60;;
80249;SDS011;69561;37.974;23.708;2023-08-01T13:10:30;3.15;;;1.60;;
80249;SDS011;69561;37.974;23.708;2023-08-01T13:13:00;1.75;;;1.60;;
80249;SDS011;69561;37.974;23.708;2023-08-01T13:15:26;3.17;;;1.67;;
80249;SDS011;69561;37.974;23.708;2023-08-01T13:17:52;2.10;;;1.92;;
80249;SDS011;69561;37.974;23.708;2023-08-01T13:20:19;2.08;;;1.70;;
80249;SDS011;69561;37.974;23.708;2023-08-01T13:22:45;2.22;;;2.03;;
80249;SDS011;69561;37.974;23.708;2023-08-01T13:25:15;2.65;;;2.17;;
80249;SDS011;69561;37.974;23.708;2023-08-01T13:27:41;2.33;;;2.13;;
80249;SDS011;69561;37.974;23.708;2023-08-01T13:30:08;3.45;;;2.20;;
80249;SDS011;69561;37.974;23.708;2023-08-01T13:32:34;2.40;;;2.20;;
80249;SDS011;69561;37.974;23.708;2023-08-01T13:35:00;2.70;;;2.20;;
80249;SDS011;69561;37.974;23.708;2023-08-01T13:37:27;2.25;;;2.08;;
80249;SDS011;69561;37.974;23.708;2023-08-01T13:39:54;2.45;;;2.08;;
80249;SDS011;69561;37.974;23.708;2023-08-01T13:42:21;2.10;;;2.00;;
80249;SDS011;69561;37.974;23.708;2023-08-01T13:44:47;2.80;;;2.17;;
80249;SDS011;69561;37.974;23.708;2023-08-01T13:47:13;3.15;;;2.22;;
80249;SDS011;69561;37.974;23.708;2023-08-01T13:49:38;2.92;;;2.20;;
80249;SDS011;69561;37.974;23.708;2023-08-01T13:52:04;3.20;;;2.42;;
80249;SDS011;69561;37.974;23.708;2023-08-01T13:54:31;2.67;;;2.25;;
80249;SDS011;69561;37.974;23.708;2023-08-01T13:56:57;2.97;;;2.50;;
80249;SDS011;69561;37.974;23.708;2023-08-01T13:59:22;2.53;;;2.33;;
80249;SDS011;69561;37.974;23.708;2023-08-01T14:01:48;3.28;;;2.40;;
80249;SDS011;69561;37.974;23.708;2023-08-01T14:04:14;3.70;;;2.25;;
80249;SDS011;69561;37.974;23.708;2023-08-01T14:06:40;2.40;;;2.20;;
80249;SDS011;69561;37.974;23.708;2023-08-01T14:09:07;2.30;;;2.10;;
80249;SDS011;69561;37.974;23.708;2023-08-01T14:11:36;3.60;;;2.28;;
80249;SDS011;69561;37.974;23.708;2023-08-01T14:14:02;2.50;;;2.30;;
80249;SDS011;69561;37.974;23.708;2023-08-01T14:16:28;2.65;;;2.08;;
80249;SDS011;69561;37.974;23.708;2023-08-01T14:18:55;2.63;;;2.42;;
80249;SDS011;69561;37.974;23.708;2023-08-01T14:21:21;3.95;;;2.20;;
80249;SDS011;69561;37.974;23.708;2023-08-01T14:23:47;2.03;;;1.92;;
80249;SDS011;69561;37.974;23.708;2023-08-01T14:26:13;2.58;;;2.10;;
80249;SDS011;69561;37.974;23.708;2023-08-01T14:28:39;3.92;;;2.40;;
80249;SDS011;69561;37.974;23.708;2023-08-01T14:31:05;2.60;;;2.15;;
80249;SDS011;69561;37.974;23.708;2023-08-01T14:33:32;2.33;;;1.95;;
80249;SDS011;69561;37.974;23.708;2023-08-01T14:35:58;3.50;;;2.33;;
80249;SDS011;69561;37.974;23.708;2023-08-01T14:38:24;3.60;;;2.20;;
80249;SDS011;69561;37.974;23.708;2023-08-01T14:40:51;2.70;;;2.50;;
80249;SDS011;69561;37.974;23.708;2023-08-01T14:43:17;2.78;;;2.20;;
80249;SDS011;69561;37.974;23.708;2023-08-01T14:45:43;4.22;;;2.53;;
80249;SDS011;69561;37.974;23.708;2023-08-01T14:48:09;2.53;;;2.33;;
80249;SDS011;69561;37.974;23.708;2023-08-01T14:50:34;4.07;;;2.55;;
80249;SDS011;69561;37.974;23.708;2023-08-01T14:53:02;2.83;;;2.45;;
80249;SDS011;69561;37.974;23.708;2023-08-01T14:55:28;2.50;;;2.30;;
80249;SDS011;69561;37.974;23.708;2023-08-01T14:57:54;2.53;;;2.33;;
80249;SDS011;69561;37.974;23.708;2023-08-01T15:00:20;2.33;;;2.13;;
80249;SDS011;69561;37.974;23.708;2023-08-01T15:02:46;6.35;;;2.80;;
80249;SDS011;69561;37.974;23.708;2023-08-01T15:05:13;11.40;;;2.90;;
80249;SDS011;69561;37.974;23.708;2023-08-01T15:07:38;10.27;;;3.40;;
80249;SDS011;69561;37.974;23.708;2023-08-01T15:10:04;7.88;;;3.17;;
80249;SDS011;69561;37.974;23.708;2023-08-01T15:12:31;6.82;;;3.10;;
80249;SDS011;69561;37.974;23.708;2023-08-01T15:14:56;8.65;;;3.17;;
80249;SDS011;69561;37.974;23.708;2023-08-01T15:17:22;6.32;;;2.67;;